createdAt,value
2023-02-19T00:00:14.340Z,17.40
2023-02-19T00:02:41.950Z,14.18
2023-02-19T00:05:12.808Z,17.98
2023-02-19T00:07:40.340Z,17.70
2023-02-19T00:10:08.415Z,18.58
2023-02-19T00:12:35.969Z,19.00
2023-02-19T00:15:05.096Z,17.35
2023-02-19T00:17:32.977Z,21.70
2023-02-19T00:20:01.439Z,17.15
2023-02-19T00:22:29.138Z,17.38
2023-02-19T00:24:57.610Z,18.27
2023-02-19T00:27:24.934Z,18.42
2023-02-19T00:29:54.253Z,17.65
2023-02-19T00:32:21.482Z,17.75
2023-02-19T00:34:50.819Z,18.50
2023-02-19T00:37:18.258Z,16.67
2023-02-19T00:39:45.987Z,18.63
2023-02-19T00:42:13.496Z,18.77
2023-02-19T00:44:41.726Z,18.27
2023-02-19T00:47:09.453Z,16.17
2023-02-19T00:49:39.447Z,17.73
2023-02-19T00:52:06.772Z,18.35
2023-02-19T00:54:34.688Z,22.33
2023-02-19T00:57:02.251Z,21.83
2023-02-19T00:59:31.458Z,21.42
2023-02-19T01:01:58.848Z,21.13
2023-02-19T01:04:26.263Z,18.48
2023-02-19T01:06:54.219Z,16.33
2023-02-19T01:09:21.589Z,17.23
2023-02-19T01:11:49.387Z,15.65
2023-02-19T01:14:17.980Z,15.50
2023-02-19T01:16:45.464Z,18.73
2023-02-19T01:19:15.791Z,19.15
2023-02-19T01:21:44.394Z,16.08
2023-02-19T01:24:11.654Z,16.52
2023-02-19T01:26:39.156Z,19.90
2023-02-19T01:29:07.297Z,17.15
2023-02-19T01:31:36.847Z,16.75
2023-02-19T01:34:06.581Z,15.10
2023-02-19T01:36:37.195Z,17.55
2023-02-19T01:39:07.362Z,19.15
2023-02-19T01:41:39.618Z,31.25
2023-02-19T01:44:17.980Z,30.13
2023-02-19T01:46:48.779Z,15.77
2023-02-19T01:49:28.679Z,28.50
2023-02-19T01:52:30.953Z,20.33
2023-02-19T01:55:01.565Z,22.85
2023-02-19T01:57:37.276Z,36.78
2023-02-19T02:00:11.858Z,40.30
2023-02-19T02:02:44.565Z,16.20
2023-02-19T02:05:38.810Z,17.02
2023-02-19T02:08:26.190Z,18.52
2023-02-19T02:10:56.309Z,15.00
2023-02-19T02:13:23.860Z,18.13
2023-02-19T02:16:21.669Z,14.40
2023-02-19T02:19:09.644Z,54.53
2023-02-19T02:22:16.230Z,48.58
2023-02-19T02:24:55.505Z,33.03
2023-02-19T02:27:36.612Z,17.67
2023-02-19T02:33:12.088Z,17.33
2023-02-19T02:35:50.185Z,16.17
2023-02-19T02:38:23.142Z,16.42
2023-02-19T02:40:51.933Z,14.85
2023-02-19T02:43:20.493Z,15.07
2023-02-19T02:45:48.087Z,14.82
2023-02-19T02:48:42.737Z,14.85
2023-02-19T02:51:21.501Z,12.30
2023-02-19T02:54:35.527Z,14.98
2023-02-19T02:57:09.964Z,15.00
2023-02-19T02:59:46.205Z,14.63
2023-02-19T03:02:23.043Z,16.38
2023-02-19T03:05:29.518Z,14.10
2023-02-19T03:08:00.684Z,13.73
2023-02-19T03:10:52.068Z,12.40
2023-02-19T03:14:13.617Z,13.43
2023-02-19T03:17:11.584Z,13.07
2023-02-19T03:19:46.001Z,14.07
2023-02-19T03:22:27.153Z,12.18
2023-02-19T03:25:28.827Z,13.32
2023-02-19T03:27:58.713Z,12.32
2023-02-19T03:30:39.554Z,12.95
2023-02-19T03:33:19.266Z,13.63
2023-02-19T03:36:08.874Z,12.63
2023-02-19T03:39:02.100Z,13.20
2023-02-19T03:41:56.811Z,13.95
2023-02-19T03:44:47.142Z,12.63
2023-02-19T03:47:41.853Z,12.00
2023-02-19T03:50:13.627Z,11.35
2023-02-19T03:52:41.269Z,11.63
2023-02-19T03:55:23.666Z,12.68
2023-02-19T03:58:05.924Z,13.18
2023-02-19T04:00:44.751Z,12.80
2023-02-19T04:03:54.771Z,14.25
2023-02-19T04:06:27.571Z,22.80
2023-02-19T04:08:59.714Z,20.75
2023-02-19T04:11:29.339Z,14.30
2023-02-19T04:14:15.464Z,14.18
2023-02-19T04:16:50.918Z,14.35
2023-02-19T04:19:21.611Z,15.60
2023-02-19T04:24:33.060Z,11.75
2023-02-19T04:27:00.678Z,16.27
2023-02-19T04:29:27.991Z,13.80
2023-02-19T04:31:56.315Z,14.32
2023-02-19T04:34:23.764Z,35.15
2023-02-19T04:36:51.108Z,33.00
2023-02-19T04:39:18.446Z,21.63
2023-02-19T04:41:45.867Z,22.42
2023-02-19T04:44:14.369Z,31.00
2023-02-19T04:46:43.159Z,27.30
2023-02-19T04:49:11.682Z,23.67
2023-02-19T04:51:39.898Z,25.15
2023-02-19T04:54:07.878Z,25.40
2023-02-19T04:56:35.239Z,24.52
2023-02-19T04:59:04.312Z,24.02
2023-02-19T05:01:31.641Z,24.15
2023-02-19T05:03:59.116Z,25.33
2023-02-19T05:06:27.626Z,27.88
2023-02-19T05:08:55.125Z,25.58
2023-02-19T05:11:24.105Z,25.65
2023-02-19T05:13:51.629Z,23.85
2023-02-19T05:16:18.951Z,23.73
2023-02-19T05:18:47.018Z,19.77
2023-02-19T05:21:15.369Z,18.83
2023-02-19T05:23:43.969Z,20.38
2023-02-19T05:26:19.898Z,25.65
2023-02-19T05:28:49.259Z,20.85
2023-02-19T05:31:16.984Z,21.10
2023-02-19T05:33:47.611Z,20.98
2023-02-19T05:36:15.172Z,25.65
2023-02-19T05:38:44.117Z,22.13
2023-02-19T05:41:17.709Z,23.30
2023-02-19T05:43:52.549Z,26.13
2023-02-19T05:46:24.242Z,27.20
2023-02-19T05:48:53.816Z,23.75
2023-02-19T05:51:25.336Z,32.28
2023-02-19T05:53:52.936Z,29.92
2023-02-19T05:56:26.437Z,29.08
2023-02-19T05:58:55.011Z,31.33
2023-02-19T06:01:25.986Z,27.80
2023-02-19T06:03:57.253Z,27.08
2023-02-19T06:06:26.224Z,27.10
2023-02-19T06:08:54.134Z,22.98
2023-02-19T06:11:23.984Z,30.50
2023-02-19T06:13:53.413Z,26.08
2023-02-19T06:16:22.586Z,26.65
2023-02-19T06:18:51.372Z,23.15
2023-02-19T06:21:20.334Z,22.08
2023-02-19T06:23:48.247Z,23.40
2023-02-19T06:26:15.629Z,21.75
2023-02-19T06:28:46.548Z,25.33
2023-02-19T06:31:14.738Z,24.63
2023-02-19T06:33:43.401Z,27.10
2023-02-19T06:36:14.299Z,26.88
2023-02-19T06:38:42.416Z,27.52
2023-02-19T06:41:11.439Z,26.38
2023-02-19T06:44:07.701Z,27.15
2023-02-19T06:46:42.372Z,22.10
2023-02-19T06:49:09.794Z,25.85
2023-02-19T06:51:37.456Z,30.90
2023-02-19T06:54:05.571Z,29.20
2023-02-19T06:56:39.579Z,30.50
2023-02-19T06:59:13.521Z,28.08
2023-02-19T07:01:41.423Z,30.67
2023-02-19T07:04:10.372Z,27.67
2023-02-19T07:06:38.191Z,27.85
2023-02-19T07:09:08.604Z,30.88
2023-02-19T07:11:38.364Z,28.52
2023-02-19T07:14:09.303Z,27.88
2023-02-19T07:16:39.571Z,28.60
2023-02-19T07:19:07.198Z,31.48
2023-02-19T07:21:37.934Z,29.25
2023-02-19T07:24:06.680Z,29.50
2023-02-19T07:26:33.982Z,28.98
2023-02-19T07:29:02.634Z,33.47
2023-02-19T07:31:30.317Z,30.70
2023-02-19T07:33:57.611Z,31.90
2023-02-19T07:36:26.091Z,34.75
2023-02-19T07:38:59.402Z,46.17
2023-02-19T07:41:27.915Z,35.33
2023-02-19T07:43:58.175Z,30.98
2023-02-19T07:46:26.300Z,31.83
2023-02-19T07:48:54.893Z,27.45
2023-02-19T07:51:22.966Z,28.83
2023-02-19T07:53:54.432Z,29.02
2023-02-19T07:56:23.668Z,28.23
2023-02-19T07:58:51.466Z,28.05
2023-02-19T08:01:40.687Z,26.63
2023-02-19T08:04:12.260Z,24.50
2023-02-19T08:06:42.611Z,24.23
2023-02-19T08:09:10.305Z,24.85
2023-02-19T08:11:57.676Z,21.85
2023-02-19T08:14:27.528Z,24.80
2023-02-19T08:16:55.387Z,54.30
2023-02-19T08:19:25.598Z,46.17
2023-02-19T08:21:53.758Z,31.35
2023-02-19T08:24:24.973Z,28.88
2023-02-19T08:26:53.813Z,26.75
2023-02-19T08:29:21.402Z,27.88
2023-02-19T08:31:49.030Z,26.50
2023-02-19T08:34:17.332Z,30.30
2023-02-19T08:36:44.693Z,30.65
2023-02-19T08:39:11.945Z,30.88
2023-02-19T08:41:39.344Z,29.15
2023-02-19T08:44:08.589Z,28.77
2023-02-19T08:46:35.837Z,28.13
2023-02-19T08:49:04.744Z,50.42
2023-02-19T08:51:32.586Z,29.60
2023-02-19T08:54:04.857Z,29.85
2023-02-19T08:56:33.172Z,29.52
2023-02-19T08:59:00.468Z,31.00
2023-02-19T09:01:27.906Z,30.08
2023-02-19T09:03:56.152Z,30.77
2023-02-19T09:06:31.893Z,29.48
2023-02-19T09:09:24.578Z,34.95
2023-02-19T09:11:54.953Z,36.17
2023-02-19T09:14:33.212Z,35.40
2023-02-19T09:17:01.644Z,32.25
2023-02-19T09:19:30.727Z,28.85
2023-02-19T09:21:58.263Z,32.47
2023-02-19T09:24:26.684Z,33.30
2023-02-19T09:26:55.128Z,29.30
2023-02-19T09:29:25.785Z,28.73
2023-02-19T09:34:24.855Z,33.75
2023-02-19T09:36:57.384Z,32.17
2023-02-19T09:39:24.870Z,31.70
2023-02-19T09:42:08.900Z,37.42
2023-02-19T09:44:40.554Z,36.38
2023-02-19T09:47:20.759Z,34.97
2023-02-19T09:49:52.293Z,26.52
2023-02-19T09:52:46.856Z,25.20
2023-02-19T09:55:37.145Z,23.65
2023-02-19T09:58:16.078Z,23.60
2023-02-19T10:00:48.887Z,27.80
2023-02-19T10:03:30.890Z,32.30
2023-02-19T10:06:02.869Z,32.35
2023-02-19T10:08:34.390Z,35.15
2023-02-19T10:11:05.162Z,28.25
2023-02-19T10:16:07.279Z,25.45
2023-02-19T10:18:41.901Z,40.83
2023-02-19T10:21:16.336Z,25.77
2023-02-19T10:23:56.918Z,23.83
2023-02-19T10:26:25.215Z,41.78
2023-02-19T10:28:55.551Z,27.20
2023-02-19T10:31:26.300Z,22.95
2023-02-19T10:34:03.423Z,25.05
2023-02-19T10:36:38.482Z,26.17
2023-02-19T10:39:21.872Z,27.77
2023-02-19T10:41:52.411Z,69.15
2023-02-19T10:44:28.226Z,39.15
2023-02-19T10:46:58.993Z,32.00
2023-02-19T10:52:03.954Z,26.92
2023-02-19T10:54:35.671Z,24.60
2023-02-19T10:57:43.601Z,24.52
2023-02-19T11:00:18.742Z,23.65
2023-02-19T11:02:47.844Z,22.13
2023-02-19T11:05:20.252Z,20.48
2023-02-19T11:07:54.998Z,22.30
2023-02-19T11:10:40.395Z,20.33
2023-02-19T11:13:15.816Z,13.40
2023-02-19T11:15:51.458Z,8.07
2023-02-19T11:18:33.313Z,10.02
2023-02-19T11:21:08.675Z,13.95
2023-02-19T11:23:47.686Z,9.32
2023-02-19T11:26:22.180Z,10.07
2023-02-19T11:29:01.168Z,9.60
2023-02-19T11:31:33.423Z,8.55
2023-02-19T11:34:07.197Z,9.45
2023-02-19T11:36:36.437Z,10.20
2023-02-19T11:39:16.546Z,9.20
2023-02-19T11:42:06.456Z,8.93
2023-02-19T11:45:11.748Z,9.15
2023-02-19T11:48:09.020Z,9.98
2023-02-19T11:51:05.444Z,9.00
2023-02-19T11:53:37.369Z,9.25
2023-02-19T11:56:22.594Z,14.05
2023-02-19T11:59:02.352Z,13.73
2023-02-19T12:02:18.558Z,11.20
2023-02-19T12:05:19.291Z,14.55
2023-02-19T12:11:08.478Z,10.68
2023-02-19T12:14:09.785Z,12.52
2023-02-19T12:17:09.851Z,14.77
2023-02-19T12:20:07.987Z,13.95
2023-02-19T12:22:44.939Z,11.88
2023-02-19T12:25:34.317Z,13.38
2023-02-19T12:28:25.458Z,12.82
2023-02-19T12:31:22.465Z,11.98
2023-02-19T12:34:06.651Z,14.35
2023-02-19T12:36:50.830Z,11.80
2023-02-19T12:39:42.761Z,11.80
2023-02-19T12:42:32.110Z,14.23
2023-02-19T12:45:06.802Z,12.30
2023-02-19T12:47:42.294Z,10.52
2023-02-19T12:50:27.844Z,11.02
2023-02-19T12:53:21.487Z,11.73
2023-02-19T12:55:48.935Z,9.70
2023-02-19T12:58:28.994Z,12.07
2023-02-19T13:01:00.164Z,10.45
2023-02-19T13:03:38.484Z,12.15
2023-02-19T13:06:47.702Z,10.70
2023-02-19T13:09:25.259Z,13.07
2023-02-19T13:12:00.556Z,10.43
2023-02-19T13:14:33.821Z,9.30
2023-02-19T13:17:09.809Z,10.15
2023-02-19T13:19:38.715Z,10.82
2023-02-19T13:22:45.533Z,8.77
2023-02-19T13:25:15.109Z,10.38
2023-02-19T13:28:10.948Z,8.93
2023-02-19T13:31:00.431Z,10.15
2023-02-19T13:33:36.856Z,8.77
2023-02-19T13:36:13.214Z,10.13
2023-02-19T13:38:44.131Z,9.02
2023-02-19T13:41:31.599Z,8.52
2023-02-19T13:44:02.891Z,10.00
2023-02-19T13:46:40.716Z,10.23
2023-02-19T13:49:23.611Z,9.18
2023-02-19T13:51:56.537Z,10.15
2023-02-19T13:54:42.066Z,11.68
2023-02-19T13:57:25.553Z,10.43
2023-02-19T13:59:54.438Z,12.35
2023-02-19T14:02:22.025Z,10.27
2023-02-19T14:04:57.142Z,11.00
2023-02-19T14:07:27.188Z,10.50
2023-02-19T14:09:55.548Z,8.45
2023-02-19T14:12:31.334Z,10.25
2023-02-19T14:15:28.524Z,9.30
2023-02-19T14:17:57.270Z,8.70
2023-02-19T14:20:40.870Z,12.43
2023-02-19T14:23:25.631Z,11.27
2023-02-19T14:25:58.447Z,10.43
2023-02-19T14:28:33.757Z,10.07
2023-02-19T14:31:22.738Z,10.55
2023-02-19T14:34:14.914Z,8.45
2023-02-19T14:40:55.808Z,8.80
2023-02-19T14:43:25.893Z,9.45
2023-02-19T14:46:05.082Z,11.27
2023-02-19T14:48:38.433Z,8.85
2023-02-19T14:51:30.988Z,9.75
2023-02-19T14:54:01.698Z,9.73
2023-02-19T14:56:34.959Z,9.07
2023-02-19T14:59:10.204Z,10.20
2023-02-19T15:01:38.285Z,8.63
2023-02-19T15:04:07.055Z,8.73
2023-02-19T15:06:38.135Z,9.32
2023-02-19T15:09:07.480Z,9.00
2023-02-19T15:11:36.143Z,10.47
2023-02-19T15:14:06.715Z,10.27
2023-02-19T15:19:08.180Z,11.60
2023-02-19T15:21:39.159Z,8.40
2023-02-19T15:24:07.490Z,10.07
2023-02-19T15:26:41.898Z,7.93
2023-02-19T15:29:14.808Z,9.25
2023-02-19T15:31:47.478Z,9.32
2023-02-19T15:34:35.094Z,12.90
2023-02-19T15:37:08.667Z,10.20
2023-02-19T15:39:37.748Z,10.70
2023-02-19T15:42:07.714Z,10.50
2023-02-19T15:44:53.948Z,9.23
2023-02-19T15:47:36.013Z,9.77
2023-02-19T15:50:13.363Z,9.35
2023-02-19T15:52:46.130Z,9.05
2023-02-19T15:55:19.987Z,9.82
2023-02-19T15:57:53.387Z,7.68
2023-02-19T16:00:34.581Z,8.45
2023-02-19T16:03:06.039Z,8.98
2023-02-19T16:05:40.923Z,9.80
2023-02-19T16:08:21.464Z,9.43
2023-02-19T16:10:57.845Z,10.37
2023-02-19T16:13:28.404Z,10.57
2023-02-19T16:16:36.347Z,8.45
2023-02-19T16:19:04.031Z,10.40
2023-02-19T16:21:32.481Z,9.18
2023-02-19T16:24:20.495Z,10.88
2023-02-19T16:26:49.313Z,10.93
2023-02-19T16:29:22.764Z,10.75
2023-02-19T16:32:02.090Z,9.63
2023-02-19T16:34:44.137Z,10.90
2023-02-19T16:37:30.502Z,9.13
2023-02-19T16:40:19.189Z,10.57
2023-02-19T16:42:49.561Z,9.68
2023-02-19T16:47:52.223Z,9.05
2023-02-19T16:50:22.905Z,10.23
2023-02-19T16:52:57.485Z,13.43
2023-02-19T16:55:27.787Z,12.43
2023-02-19T16:57:57.143Z,11.10
2023-02-19T17:00:31.209Z,10.45
2023-02-19T17:03:10.660Z,10.52
2023-02-19T17:05:39.567Z,11.00
2023-02-19T17:08:41.241Z,10.40
2023-02-19T17:11:17.588Z,9.57
2023-02-19T17:13:47.099Z,9.38
2023-02-19T17:16:23.002Z,8.70
2023-02-19T17:18:52.060Z,10.80
2023-02-19T17:21:25.656Z,9.75
2023-02-19T17:23:54.314Z,12.02
2023-02-19T17:26:32.203Z,12.38
2023-02-19T17:29:01.938Z,9.88
2023-02-19T17:31:29.659Z,11.88
2023-02-19T17:33:57.176Z,10.93
2023-02-19T17:36:31.948Z,10.48
2023-02-19T17:39:01.955Z,9.82
2023-02-19T17:41:30.132Z,11.50
2023-02-19T17:43:57.813Z,11.55
2023-02-19T17:46:27.475Z,12.50
2023-02-19T17:49:01.377Z,12.07
2023-02-19T17:51:30.621Z,10.95
2023-02-19T17:54:01.567Z,10.95
2023-02-19T17:56:29.459Z,10.52
2023-02-19T17:58:57.583Z,10.82
2023-02-19T18:01:25.823Z,10.25
2023-02-19T18:03:53.833Z,12.82
2023-02-19T18:06:21.886Z,9.70
2023-02-19T18:08:51.588Z,10.40
2023-02-19T18:11:22.376Z,10.25
2023-02-19T18:13:52.730Z,10.90
2023-02-19T18:16:20.187Z,12.15
2023-02-19T18:18:47.524Z,12.10
2023-02-19T18:21:17.397Z,11.35
2023-02-19T18:23:48.832Z,10.80
2023-02-19T18:26:26.516Z,9.77
2023-02-19T18:28:54.464Z,9.80
2023-02-19T18:31:21.817Z,10.48
2023-02-19T18:33:50.238Z,10.27
2023-02-19T18:36:18.501Z,9.65
2023-02-19T18:38:46.959Z,9.45
2023-02-19T18:41:22.319Z,9.60
2023-02-19T18:43:49.896Z,11.10
2023-02-19T18:46:21.756Z,9.25
2023-02-19T18:48:50.317Z,10.63
2023-02-19T18:51:17.909Z,8.85
2023-02-19T18:53:45.301Z,10.98
2023-02-19T18:56:13.096Z,10.30
2023-02-19T18:58:42.064Z,10.73
2023-02-19T19:01:10.025Z,10.38
2023-02-19T19:03:38.979Z,11.82
2023-02-19T19:06:06.349Z,10.68
2023-02-19T19:08:34.185Z,10.45
2023-02-19T19:11:02.828Z,12.07
2023-02-19T19:13:30.774Z,10.40
2023-02-19T19:15:58.081Z,15.30
2023-02-19T19:18:26.620Z,15.10
2023-02-19T19:20:56.826Z,13.55
2023-02-19T19:23:26.695Z,13.27
2023-02-19T19:25:56.287Z,13.13
2023-02-19T19:28:24.125Z,15.10
2023-02-19T19:30:51.699Z,13.30
2023-02-19T19:33:20.464Z,12.43
2023-02-19T19:35:47.804Z,11.95
2023-02-19T19:38:15.576Z,12.05
2023-02-19T19:40:45.755Z,10.93
2023-02-19T19:43:15.248Z,10.77
2023-02-19T19:45:44.452Z,11.07
2023-02-19T19:48:12.832Z,11.43
2023-02-19T19:50:40.175Z,14.20
2023-02-19T19:53:07.796Z,21.92
2023-02-19T19:55:36.038Z,15.88
2023-02-19T19:58:03.420Z,14.07
2023-02-19T20:00:35.375Z,10.77
2023-02-19T20:03:03.355Z,12.68
2023-02-19T20:05:32.227Z,11.10
2023-02-19T20:07:59.899Z,12.48
2023-02-19T20:10:27.240Z,11.55
2023-02-19T20:12:57.233Z,13.32
2023-02-19T20:15:28.388Z,12.30
2023-02-19T20:17:55.722Z,11.02
2023-02-19T20:20:23.351Z,10.20
2023-02-19T20:22:53.211Z,11.57
2023-02-19T20:25:23.080Z,11.88
2023-02-19T20:27:52.984Z,12.38
2023-02-19T20:30:27.343Z,18.02
2023-02-19T20:32:54.930Z,15.65
2023-02-19T20:35:22.338Z,11.15
2023-02-19T20:37:50.951Z,108.70
2023-02-19T20:40:18.699Z,13.45
2023-02-19T20:42:46.114Z,15.27
2023-02-19T20:45:20.085Z,13.50
2023-02-19T20:47:54.847Z,12.18
2023-02-19T20:50:25.814Z,11.40
2023-02-19T20:52:56.024Z,11.32
2023-02-19T20:55:24.367Z,23.23
2023-02-19T20:57:53.068Z,16.10
2023-02-19T21:00:26.082Z,11.82
2023-02-19T21:02:53.638Z,11.98
2023-02-19T21:05:22.091Z,16.08
2023-02-19T21:07:49.704Z,14.82
2023-02-19T21:10:17.313Z,14.35
2023-02-19T21:12:45.846Z,13.60
2023-02-19T21:15:14.969Z,14.10
2023-02-19T21:17:45.609Z,18.48
2023-02-19T21:20:14.264Z,16.33
2023-02-19T21:22:41.854Z,11.90
2023-02-19T21:25:09.163Z,12.45
2023-02-19T21:27:38.464Z,15.40
2023-02-19T21:30:07.642Z,15.57
2023-02-19T21:33:37.510Z,14.68
2023-02-19T21:36:06.581Z,12.90
2023-02-19T21:38:34.333Z,12.45
2023-02-19T21:41:03.539Z,12.52
2023-02-19T21:43:31.400Z,11.30
2023-02-19T21:46:01.451Z,14.07
2023-02-19T21:48:29.030Z,14.30
2023-02-19T21:50:57.271Z,14.18
2023-02-19T21:53:24.613Z,12.80
2023-02-19T21:55:58.779Z,12.55
2023-02-19T21:58:27.176Z,11.32
2023-02-19T22:00:56.477Z,11.85
2023-02-19T22:03:26.552Z,11.38
2023-02-19T22:05:55.624Z,12.18
2023-02-19T22:08:22.921Z,9.27
2023-02-19T22:10:51.376Z,10.15
2023-02-19T22:13:18.690Z,11.93
2023-02-19T22:15:47.802Z,11.15
2023-02-19T22:18:15.249Z,11.65
2023-02-19T22:20:42.678Z,11.40
2023-02-19T22:23:10.259Z,11.73
2023-02-19T22:25:38.181Z,10.20
2023-02-19T22:28:07.845Z,11.60
2023-02-19T22:30:38.893Z,19.75
2023-02-19T22:33:07.171Z,15.25
2023-02-19T22:35:34.839Z,14.23
2023-02-19T22:38:03.661Z,12.80
2023-02-19T22:40:31.334Z,15.38
2023-02-19T22:42:58.680Z,16.25
2023-02-19T22:45:29.454Z,12.85
2023-02-19T22:47:57.934Z,10.75
2023-02-19T22:50:26.669Z,9.85
2023-02-19T22:52:55.264Z,11.95
2023-02-19T22:55:22.508Z,14.02
2023-02-19T22:57:50.827Z,13.77
2023-02-19T23:00:24.707Z,12.77
2023-02-19T23:02:54.514Z,10.52
2023-02-19T23:05:24.650Z,11.02
2023-02-19T23:07:53.296Z,15.30
2023-02-19T23:10:20.655Z,11.27
2023-02-19T23:12:49.108Z,13.40
2023-02-19T23:15:17.575Z,12.50
2023-02-19T23:17:47.061Z,12.50
2023-02-19T23:20:14.760Z,9.88
2023-02-19T23:22:43.763Z,16.02
2023-02-19T23:25:11.586Z,13.00
2023-02-19T23:27:38.840Z,15.98
2023-02-19T23:30:10.028Z,55.17
2023-02-19T23:32:37.540Z,78.35
2023-02-19T23:35:05.797Z,25.00
2023-02-19T23:37:33.585Z,16.85
2023-02-19T23:40:01.801Z,42.80
2023-02-19T23:42:29.355Z,32.08
2023-02-19T23:44:57.548Z,23.42
2023-02-19T23:47:26.705Z,14.27
2023-02-19T23:49:54.661Z,18.05
2023-02-19T23:52:22.058Z,16.13
2023-02-19T23:54:50.716Z,19.48
2023-02-19T23:57:18.224Z,24.17
2023-02-19T23:59:47.375Z,25.27
